createdAt,value
2023-03-22T00:01:17.297Z,100810.41
2023-03-22T00:03:44.914Z,100807.34
2023-03-22T00:06:13.055Z,100805.53
2023-03-22T00:08:40.741Z,100802.72
2023-03-22T00:11:08.781Z,100803.94
2023-03-22T00:13:37.653Z,100812.50
2023-03-22T00:16:05.940Z,100807.63
2023-03-22T00:18:33.591Z,100805.06
2023-03-22T00:21:01.236Z,100805.34
2023-03-22T00:23:29.540Z,100803.25
2023-03-22T00:25:57.550Z,100800.69
2023-03-22T00:28:25.332Z,100801.00
2023-03-22T00:30:57.818Z,100804.38
2023-03-22T00:33:28.623Z,100802.09
2023-03-22T00:36:00.787Z,100792.84
2023-03-22T00:38:44.827Z,100795.13
2023-03-22T00:41:14.784Z,100783.25
2023-03-22T00:43:42.781Z,100785.38
2023-03-22T00:46:11.463Z,100787.22
2023-03-22T00:48:39.517Z,100778.63
2023-03-22T00:51:08.059Z,100777.50
2023-03-22T00:53:37.643Z,100778.53
2023-03-22T00:56:06.287Z,100776.41
2023-03-22T00:58:44.486Z,100777.00
2023-03-22T01:01:15.323Z,100774.44
2023-03-22T01:03:43.885Z,100778.69
2023-03-22T01:06:15.188Z,100771.50
2023-03-22T01:08:43.148Z,100770.09
2023-03-22T01:11:10.880Z,100772.91
2023-03-22T01:13:39.716Z,100772.09
2023-03-22T01:16:07.900Z,100772.22
2023-03-22T01:18:36.416Z,100777.72
2023-03-22T01:21:04.518Z,100779.56
2023-03-22T01:23:32.319Z,100779.97
2023-03-22T01:26:00.075Z,100770.84
2023-03-22T01:28:28.707Z,100776.88
2023-03-22T01:30:56.772Z,100768.00
2023-03-22T01:33:24.524Z,100767.19
2023-03-22T01:35:53.068Z,100769.41
2023-03-22T01:38:21.896Z,100768.97
2023-03-22T01:40:59.341Z,100775.50
2023-03-22T01:43:29.436Z,100776.31
2023-03-22T01:45:58.780Z,100772.50
2023-03-22T01:48:35.080Z,100771.81
2023-03-22T01:51:03.219Z,100770.78
2023-03-22T01:53:37.200Z,100778.13
2023-03-22T01:56:07.361Z,100764.59
2023-03-22T01:58:37.418Z,100771.88
2023-03-22T02:01:08.752Z,100780.47
2023-03-22T02:03:53.840Z,100776.81
2023-03-22T02:06:23.904Z,100776.31
2023-03-22T02:08:58.841Z,100765.16
2023-03-22T02:11:31.158Z,100770.78
2023-03-22T02:14:01.428Z,100768.00
2023-03-22T02:17:19.909Z,100770.91
2023-03-22T02:20:08.240Z,100762.47
2023-03-22T02:22:58.644Z,100765.16
2023-03-22T02:25:44.979Z,100764.13
2023-03-22T02:28:27.658Z,100758.22
2023-03-22T02:30:55.523Z,100756.56
2023-03-22T02:33:29.201Z,100755.88
2023-03-22T02:36:23.167Z,100757.53
2023-03-22T02:39:04.669Z,100747.94
2023-03-22T02:41:44.262Z,100754.41
2023-03-22T02:44:32.712Z,100747.84
2023-03-22T02:47:05.182Z,100750.50
2023-03-22T02:50:02.391Z,100757.22
2023-03-22T02:52:43.372Z,100753.69
2023-03-22T02:55:14.781Z,100752.28
2023-03-22T02:57:47.669Z,100753.25
2023-03-22T03:00:16.542Z,100762.94
2023-03-22T03:02:49.071Z,100752.13
2023-03-22T03:05:18.700Z,100756.34
2023-03-22T03:07:58.328Z,100760.75
2023-03-22T03:10:27.346Z,100754.31
2023-03-22T03:12:55.134Z,100754.56
2023-03-22T03:15:23.931Z,100761.19
2023-03-22T03:18:07.502Z,100768.63
2023-03-22T03:20:54.720Z,100760.97
2023-03-22T03:23:28.575Z,100773.13
2023-03-22T03:25:59.813Z,100769.56
2023-03-22T03:28:38.752Z,100768.44
2023-03-22T03:31:11.484Z,100771.16
2023-03-22T03:33:59.014Z,100772.38
2023-03-22T03:36:27.642Z,100770.16
2023-03-22T03:38:56.452Z,100774.31
2023-03-22T03:41:29.308Z,100770.22
2023-03-22T03:43:58.750Z,100768.94
2023-03-22T03:46:29.457Z,100770.91
2023-03-22T03:48:57.901Z,100773.47
2023-03-22T03:51:27.546Z,100773.69
2023-03-22T03:53:55.351Z,100770.50
2023-03-22T03:56:23.848Z,100772.78
2023-03-22T03:58:52.704Z,100776.53
2023-03-22T04:01:21.047Z,100764.72
2023-03-22T04:04:08.072Z,100772.31
2023-03-22T04:06:45.300Z,100770.06
2023-03-22T04:09:18.298Z,100769.44
2023-03-22T04:11:50.687Z,100769.78
2023-03-22T04:14:18.927Z,100767.66
2023-03-22T04:16:49.440Z,100773.38
2023-03-22T04:19:20.747Z,100766.44
2023-03-22T04:21:48.695Z,100774.13
2023-03-22T04:24:16.444Z,100769.00
2023-03-22T04:26:46.923Z,100778.88
2023-03-22T04:29:23.189Z,100771.19
2023-03-22T04:31:55.364Z,100769.47
2023-03-22T04:34:43.346Z,100775.66
2023-03-22T04:37:18.393Z,100772.47
2023-03-22T04:39:56.357Z,100774.22
2023-03-22T04:42:24.541Z,100775.78
2023-03-22T04:45:04.322Z,100766.97
2023-03-22T04:47:32.691Z,100771.41
2023-03-22T04:50:01.474Z,100770.72
2023-03-22T04:52:34.466Z,100769.91
2023-03-22T04:55:02.902Z,100776.34
2023-03-22T04:57:30.892Z,100773.16
2023-03-22T04:59:58.546Z,100773.53
2023-03-22T05:02:26.635Z,100777.06
2023-03-22T05:04:55.093Z,100772.00
2023-03-22T05:07:36.828Z,100769.69
2023-03-22T05:10:06.372Z,100783.66
2023-03-22T05:12:34.124Z,100786.88
2023-03-22T05:15:24.300Z,100789.41
2023-03-22T05:17:53.702Z,100790.78
2023-03-22T05:20:21.482Z,100790.56
2023-03-22T05:23:02.823Z,100798.13
2023-03-22T05:25:32.362Z,100797.53
2023-03-22T05:28:02.286Z,100799.78
2023-03-22T05:30:37.794Z,100801.47
2023-03-22T05:33:24.702Z,100798.28
2023-03-22T05:35:57.193Z,100801.19
2023-03-22T05:38:26.870Z,100804.38
2023-03-22T05:40:57.915Z,100805.00
2023-03-22T05:43:27.564Z,100805.56
2023-03-22T05:45:55.465Z,100807.91
2023-03-22T05:48:49.838Z,100802.41
2023-03-22T05:51:19.867Z,100807.91
2023-03-22T05:53:51.850Z,100814.41
2023-03-22T05:56:24.728Z,100804.91
2023-03-22T05:59:00.569Z,100808.88
2023-03-22T06:01:28.251Z,100812.91
2023-03-22T06:04:13.320Z,100815.50
2023-03-22T06:06:51.679Z,100812.50
2023-03-22T06:09:37.190Z,100815.97
2023-03-22T06:12:08.239Z,100813.81
2023-03-22T06:14:36.339Z,100816.50
2023-03-22T06:17:18.637Z,100818.09
2023-03-22T06:19:48.570Z,100822.25
2023-03-22T06:22:16.817Z,100823.06
2023-03-22T06:24:45.254Z,100822.97
2023-03-22T06:27:18.900Z,100812.38
2023-03-22T06:29:51.068Z,100816.22
2023-03-22T06:32:26.906Z,100817.63
2023-03-22T06:34:56.502Z,100821.56
2023-03-22T06:37:25.234Z,100818.34
2023-03-22T06:39:53.239Z,100825.16
2023-03-22T06:42:24.103Z,100824.44
2023-03-22T06:45:02.061Z,100825.88
2023-03-22T06:47:33.778Z,100824.47
2023-03-22T06:50:01.382Z,100821.44
2023-03-22T06:52:49.080Z,100824.84
2023-03-22T06:55:16.872Z,100830.47
2023-03-22T06:57:45.204Z,100829.78
2023-03-22T07:00:13.218Z,100822.56
2023-03-22T07:02:40.852Z,100832.41
2023-03-22T07:05:20.551Z,100830.88
2023-03-22T07:07:48.229Z,100815.22
2023-03-22T07:10:16.165Z,100824.66
2023-03-22T07:12:43.864Z,100825.06
2023-03-22T07:15:17.520Z,100827.06
2023-03-22T07:18:01.533Z,100830.97
2023-03-22T07:20:30.355Z,100844.03
2023-03-22T07:22:58.233Z,100833.47
2023-03-22T07:25:29.002Z,100838.59
2023-03-22T07:28:07.429Z,100842.91
2023-03-22T07:30:38.481Z,100843.97
2023-03-22T07:33:07.856Z,100839.97
2023-03-22T07:35:37.010Z,100848.88
2023-03-22T07:38:05.831Z,100846.97
2023-03-22T07:40:34.330Z,100848.16
2023-03-22T07:43:02.455Z,100847.25
2023-03-22T07:45:49.400Z,100847.91
2023-03-22T07:48:49.813Z,100857.44
2023-03-22T07:51:30.626Z,100860.31
2023-03-22T07:53:59.046Z,100849.50
2023-03-22T07:56:26.825Z,100857.16
2023-03-22T07:58:54.522Z,100850.03
2023-03-22T08:01:22.610Z,100856.34
2023-03-22T08:03:59.996Z,100859.31
2023-03-22T08:06:37.521Z,100861.19
2023-03-22T08:09:05.438Z,100861.75
2023-03-22T08:11:33.123Z,100855.00
2023-03-22T08:14:00.876Z,100860.03
2023-03-22T08:16:30.155Z,100863.72
2023-03-22T08:18:59.593Z,100859.06
2023-03-22T08:21:29.342Z,100859.59
2023-03-22T08:23:57.985Z,100865.59
2023-03-22T08:26:28.662Z,100859.72
2023-03-22T08:29:00.163Z,100862.25
2023-03-22T08:31:31.810Z,100854.31
2023-03-22T08:34:00.054Z,100853.31
2023-03-22T08:36:29.490Z,100859.72
2023-03-22T08:39:01.687Z,100861.41
2023-03-22T08:41:56.509Z,100856.88
2023-03-22T08:44:26.708Z,100848.78
2023-03-22T08:46:54.691Z,100862.94
2023-03-22T08:49:22.526Z,100870.31
2023-03-22T08:51:58.167Z,100860.91
2023-03-22T08:54:40.405Z,100861.25
2023-03-22T08:57:34.175Z,100865.25
2023-03-22T09:00:20.363Z,100862.53
2023-03-22T09:05:49.761Z,100857.59
2023-03-22T09:08:19.549Z,100858.09
2023-03-22T09:10:53.763Z,100860.81
2023-03-22T09:13:23.402Z,100863.44
2023-03-22T09:16:02.418Z,100864.59
2023-03-22T09:18:33.059Z,100861.25
2023-03-22T09:21:04.641Z,100864.72
2023-03-22T09:23:54.195Z,100864.69
2023-03-22T09:26:28.030Z,100860.13
2023-03-22T09:28:56.150Z,100872.09
2023-03-22T09:31:23.838Z,100861.09
2023-03-22T09:34:02.578Z,100862.81
2023-03-22T09:36:32.552Z,100863.53
2023-03-22T09:39:01.288Z,100861.72
2023-03-22T09:41:41.957Z,100865.41
2023-03-22T09:44:16.360Z,100869.72
2023-03-22T09:46:46.476Z,100867.53
2023-03-22T09:49:19.488Z,100867.03
2023-03-22T09:51:48.859Z,100861.00
2023-03-22T09:54:20.348Z,100854.91
2023-03-22T09:57:06.696Z,100857.03
2023-03-22T09:59:46.808Z,100856.16
2023-03-22T10:02:47.079Z,100850.66
2023-03-22T10:05:27.600Z,100845.09
2023-03-22T10:08:10.116Z,100848.97
2023-03-22T10:10:42.179Z,100840.66
2023-03-22T10:13:18.085Z,100839.00
2023-03-22T10:15:47.436Z,100840.09
2023-03-22T10:18:20.620Z,100836.25
2023-03-22T10:20:58.770Z,100836.66
2023-03-22T10:23:32.676Z,100844.41
2023-03-22T10:26:01.477Z,100842.97
2023-03-22T10:28:31.988Z,100835.16
2023-03-22T10:30:59.805Z,100836.25
2023-03-22T10:33:56.979Z,100834.88
2023-03-22T10:36:27.258Z,100837.59
2023-03-22T10:38:56.691Z,100839.00
2023-03-22T10:41:25.965Z,100832.44
2023-03-22T10:43:55.860Z,100817.66
2023-03-22T10:46:26.277Z,100824.88
2023-03-22T10:48:57.483Z,100823.72
2023-03-22T10:51:41.390Z,100821.22
2023-03-22T10:54:16.561Z,100817.25
2023-03-22T10:56:45.097Z,100816.44
2023-03-22T10:59:33.170Z,100814.44
2023-03-22T11:02:02.077Z,100819.56
2023-03-22T11:04:31.448Z,100803.34
2023-03-22T11:06:59.090Z,100797.75
2023-03-22T11:09:26.762Z,100799.22
2023-03-22T11:11:56.526Z,100804.72
2023-03-22T11:14:30.943Z,100805.44
2023-03-22T11:17:00.492Z,100803.13
2023-03-22T11:19:32.273Z,100800.69
2023-03-22T11:22:00.710Z,100796.00
2023-03-22T11:24:30.440Z,100797.56
2023-03-22T11:27:03.964Z,100791.34
2023-03-22T11:29:39.772Z,100799.66
2023-03-22T11:32:19.769Z,100790.72
2023-03-22T11:34:47.629Z,100794.88
2023-03-22T11:37:18.299Z,100790.22
2023-03-22T11:39:49.814Z,100782.38
2023-03-22T11:42:21.653Z,100775.75
2023-03-22T11:44:49.586Z,100778.41
2023-03-22T11:47:17.344Z,100774.63
2023-03-22T11:49:50.456Z,100767.16
2023-03-22T11:52:19.621Z,100770.09
2023-03-22T11:54:47.681Z,100775.19
2023-03-22T11:57:17.451Z,100768.41
2023-03-22T11:59:50.652Z,100759.31
2023-03-22T12:02:18.233Z,100759.97
2023-03-22T12:04:48.086Z,100750.13
2023-03-22T12:07:16.973Z,100755.66
2023-03-22T12:09:53.784Z,100747.00
2023-03-22T12:12:25.034Z,100757.94
2023-03-22T12:14:57.530Z,100745.56
2023-03-22T12:17:30.534Z,100744.09
2023-03-22T12:20:14.585Z,100755.09
2023-03-22T12:22:46.136Z,100741.94
2023-03-22T12:25:18.672Z,100744.56
2023-03-22T12:27:53.796Z,100736.44
2023-03-22T12:30:23.918Z,100738.59
2023-03-22T12:32:51.670Z,100726.94
2023-03-22T12:35:23.021Z,100722.56
2023-03-22T12:37:52.543Z,100719.59
2023-03-22T12:40:23.525Z,100715.66
2023-03-22T12:43:06.543Z,100710.13
2023-03-22T12:45:39.705Z,100712.03
2023-03-22T12:48:16.490Z,100707.06
2023-03-22T12:50:47.831Z,100703.66
2023-03-22T12:53:17.223Z,100697.66
2023-03-22T12:55:46.449Z,100696.53
2023-03-22T12:58:18.751Z,100685.16
2023-03-22T13:01:09.273Z,100687.31
2023-03-22T13:03:39.418Z,100686.25
2023-03-22T13:06:27.550Z,100687.34
2023-03-22T13:09:17.179Z,100689.31
2023-03-22T13:11:46.342Z,100673.94
2023-03-22T13:14:46.472Z,100673.22
2023-03-22T13:17:15.702Z,100671.44
2023-03-22T13:19:52.368Z,100669.13
2023-03-22T13:22:22.421Z,100661.03
2023-03-22T13:25:08.738Z,100667.06
2023-03-22T13:27:50.315Z,100663.53
2023-03-22T13:30:21.852Z,100655.25
2023-03-22T13:32:55.740Z,100653.41
2023-03-22T13:35:28.766Z,100657.81
2023-03-22T13:38:03.136Z,100645.63
2023-03-22T13:40:36.717Z,100646.69
2023-03-22T13:43:12.520Z,100647.59
2023-03-22T13:45:58.530Z,100650.06
2023-03-22T13:48:34.876Z,100643.97
2023-03-22T13:51:17.041Z,100651.69
2023-03-22T13:54:07.205Z,100644.38
2023-03-22T13:56:41.398Z,100647.81
2023-03-22T13:59:13.571Z,100633.25
2023-03-22T14:01:48.097Z,100631.34
2023-03-22T14:04:23.085Z,100634.47
2023-03-22T14:06:54.076Z,100631.78
2023-03-22T14:09:25.558Z,100629.38
2023-03-22T14:11:57.140Z,100621.50
2023-03-22T14:14:29.051Z,100607.34
2023-03-22T14:17:13.480Z,100605.88
2023-03-22T14:19:41.996Z,100609.56
